Time;durP1;ratioP1;P1;durP2;ratioP2;P2;SDS_P1;SDS_P2;PMS_P1;PMS_P2;Temp;Humidity;BMP_temperature;BMP_pressure;BME280_temperature;BME280_humidity;BME280_pressure;Samples;Min_cycle;Max_cycle;Signal;HPM_P1;HPM_P2
2022/01/26 00:05:43;;;;;;;73.80;38.10;;;;;;;;;;5034846;28;20257;-63
2022/01/26 00:06:20;;;;;;;76.73;39.77;;;;;;;;;;5034063;28;20186;-62
2022/01/26 00:08:47;;;;;;;79.90;39.47;;;;;;;;;;5032859;28;20182;-62
2022/01/26 00:11:13;;;;;;;77.30;38.13;;;;;;;;;;5032678;28;20253;-62
2022/01/26 00:13:38;;;;;;;78.53;38.30;;;;;;;;;;5033959;28;20183;-62
2022/01/26 00:16:09;;;;;;;69.00;35.60;;;;;;;;;;5032830;28;20167;-62
2022/01/26 00:18:37;;;;;;;76.53;39.63;;;;;;;;;;5032707;28;20179;-62
2022/01/26 00:21:14;;;;;;;75.67;37.63;;;;;;;;;;5033834;28;20218;-62
2022/01/26 00:24:03;;;;;;;79.53;39.70;;;;;;;;;;5032619;28;20167;-62
2022/01/26 00:26:59;;;;;;;75.47;37.40;;;;;;;;;;5032995;28;20183;-62
2022/01/26 00:29:28;;;;;;;72.50;37.50;;;;;;;;;;5033501;28;20238;-62
2022/01/26 00:40:09;;;;;;;74.80;38.80;;;;;;;;;;5033936;28;20252;-62
2022/01/26 00:42:39;;;;;;;69.87;38.60;;;;;;;;;;5033601;28;20205;-62
2022/01/26 00:45:06;;;;;;;78.13;38.80;;;;;;;;;;5033751;28;20171;-62
2022/01/26 00:47:32;;;;;;;70.60;39.00;;;;;;;;;;5033923;28;20171;-62
2022/01/26 00:50:03;;;;;;;70.57;37.93;;;;;;;;;;5033425;28;20421;-63
2022/01/26 00:52:44;;;;;;;70.97;39.20;;;;;;;;;;5035067;28;20156;-62
2022/01/26 00:55:13;;;;;;;72.33;38.47;;;;;;;;;;5033514;28;20179;-62
2022/01/26 00:57:39;;;;;;;68.70;39.37;;;;;;;;;;5033870;28;20195;-62
2022/01/26 01:00:07;;;;;;;76.80;42.50;;;;;;;;;;5034533;28;20675;-62
2022/01/26 01:02:33;;;;;;;73.70;38.23;;;;;;;;;;5032094;28;20171;-62
2022/01/26 01:05:03;;;;;;;79.33;43.37;;;;;;;;;;5032051;28;20186;-62
2022/01/26 01:07:34;;;;;;;78.57;41.93;;;;;;;;;;5033838;28;20179;-62
2022/01/26 01:10:00;;;;;;;82.97;40.33;;;;;;;;;;5031977;28;20965;-62
2022/01/26 01:12:26;;;;;;;80.23;40.90;;;;;;;;;;5032166;28;20187;-62
2022/01/26 01:14:52;;;;;;;80.00;40.07;;;;;;;;;;5033308;28;20682;-62
2022/01/26 01:17:25;;;;;;;80.77;40.60;;;;;;;;;;5033473;28;20179;-62
2022/01/26 01:20:14;;;;;;;77.27;41.00;;;;;;;;;;5034051;28;20168;-62
2022/01/26 01:28:49;;;;;;;80.83;45.50;;;;;;;;;;5030094;28;20194;-62
2022/01/26 01:31:41;;;;;;;87.37;45.07;;;;;;;;;;5033068;28;20202;-62
2022/01/26 01:34:07;;;;;;;85.13;46.07;;;;;;;;;;5033212;28;20183;-62
2022/01/26 01:36:35;;;;;;;84.63;46.67;;;;;;;;;;5048644;23;20281;-66
2022/01/26 01:39:01;;;;;;;93.73;48.20;;;;;;;;;;5032928;28;20645;-66
2022/01/26 01:41:27;;;;;;;89.23;47.37;;;;;;;;;;5032425;28;20215;-66
2022/01/26 01:43:53;;;;;;;92.87;50.00;;;;;;;;;;5034414;28;20184;-66
2022/01/26 01:46:19;;;;;;;95.67;51.00;;;;;;;;;;5036337;28;20199;-66
2022/01/26 01:48:45;;;;;;;108.47;53.00;;;;;;;;;;5036942;28;20180;-68
2022/01/26 01:51:15;;;;;;;99.03;51.23;;;;;;;;;;5036284;28;20208;-66
2022/01/26 01:53:43;;;;;;;96.40;51.23;;;;;;;;;;5034319;28;20184;-66
2022/01/26 01:56:11;;;;;;;97.27;50.03;;;;;;;;;;5033995;28;20196;-66
2022/01/26 01:58:37;;;;;;;100.07;53.00;;;;;;;;;;5036934;28;20172;-66
2022/01/26 02:01:03;;;;;;;104.73;51.67;;;;;;;;;;5037977;28;20557;-66
2022/01/26 02:03:29;;;;;;;112.07;54.93;;;;;;;;;;5035587;28;20187;-66
2022/01/26 02:05:55;;;;;;;109.03;54.40;;;;;;;;;;5037471;28;20195;-66
2022/01/26 02:08:21;;;;;;;103.67;53.33;;;;;;;;;;5031459;28;20176;-66
2022/01/26 02:10:47;;;;;;;114.63;56.83;;;;;;;;;;5024321;28;20242;-66
2022/01/26 02:15:54;;;;;;;112.30;55.77;;;;;;;;;;5016526;28;20305;-66
2022/01/26 02:18:37;;;;;;;115.47;59.07;;;;;;;;;;5015262;28;20168;-66
2022/01/26 02:21:23;;;;;;;127.13;60.70;;;;;;;;;;5016549;28;20161;-66
2022/01/26 02:54:42;;;;;;;111.60;55.60;;;;;;;;;;5015755;28;20196;-66
2022/01/26 02:57:35;;;;;;;109.20;54.70;;;;;;;;;;5015529;28;20213;-66
2022/01/26 03:05:11;;;;;;;115.83;55.77;;;;;;;;;;5015669;28;20195;-66
2022/01/26 03:07:42;;;;;;;113.93;57.77;;;;;;;;;;5014187;28;20188;-66
2022/01/26 03:10:17;;;;;;;115.00;56.77;;;;;;;;;;5014209;28;20187;-66
2022/01/26 03:12:51;;;;;;;109.57;55.10;;;;;;;;;;5015600;28;20595;-66
2022/01/26 03:15:23;;;;;;;115.17;55.03;;;;;;;;;;5015514;28;20715;-66
2022/01/26 03:20:36;;;;;;;118.83;55.63;;;;;;;;;;5015662;28;20171;-66
2022/01/26 03:29:12;;;;;;;115.37;54.77;;;;;;;;;;5015253;28;20223;-66
2022/01/26 03:31:57;;;;;;;117.83;55.33;;;;;;;;;;5012691;28;20198;-66
2022/01/26 03:34:15;;;;;;;114.30;57.20;;;;;;;;;;5014699;28;20218;-66
2022/01/26 03:39:13;;;;;;;110.47;54.03;;;;;;;;;;5015082;28;20554;-66
2022/01/26 03:41:46;;;;;;;98.93;52.30;;;;;;;;;;5014916;28;20230;-66
2022/01/26 03:44:12;;;;;;;111.10;54.80;;;;;;;;;;5014661;28;20251;-66
2022/01/26 03:46:39;;;;;;;115.27;55.53;;;;;;;;;;5013378;28;20203;-66
2022/01/26 03:49:05;;;;;;;115.87;55.43;;;;;;;;;;5013456;28;20187;-66
2022/01/26 03:51:32;;;;;;;111.80;52.87;;;;;;;;;;5014605;28;20184;-67
2022/01/26 03:53:58;;;;;;;115.03;56.07;;;;;;;;;;5014793;28;20207;-66
2022/01/26 03:56:24;;;;;;;119.73;56.50;;;;;;;;;;5013289;28;20222;-66
2022/01/26 03:58:50;;;;;;;110.47;53.43;;;;;;;;;;5013319;28;20266;-66
2022/01/26 04:01:15;;;;;;;109.07;53.70;;;;;;;;;;5014551;28;20203;-66
2022/01/26 04:03:41;;;;;;;117.03;54.27;;;;;;;;;;5014450;28;20187;-66
2022/01/26 04:06:07;;;;;;;114.50;53.87;;;;;;;;;;5013889;28;20191;-66
2022/01/26 04:08:35;;;;;;;106.47;51.70;;;;;;;;;;5015361;28;20231;-66
2022/01/26 04:13:27;;;;;;;118.03;54.43;;;;;;;;;;5024019;28;20176;-67
2022/01/26 04:15:53;;;;;;;112.47;52.53;;;;;;;;;;5027347;28;20271;-67
2022/01/26 04:18:25;;;;;;;108.87;49.90;;;;;;;;;;5022165;28;20254;-67
2022/01/26 04:20:55;;;;;;;116.93;54.87;;;;;;;;;;5016644;28;20260;-66
2022/01/26 04:23:31;;;;;;;107.53;52.07;;;;;;;;;;5015356;28;20214;-66
2022/01/26 04:25:57;;;;;;;110.10;52.20;;;;;;;;;;5014562;28;20210;-66
2022/01/26 04:28:30;;;;;;;110.83;52.57;;;;;;;;;;5014587;28;20199;-66
2022/01/26 04:30:56;;;;;;;113.80;52.40;;;;;;;;;;5014555;28;20528;-66
2022/01/26 04:33:22;;;;;;;113.67;50.83;;;;;;;;;;5014118;28;20176;-67
2022/01/26 04:35:48;;;;;;;111.83;51.83;;;;;;;;;;5012376;28;20659;-66
2022/01/26 04:38:20;;;;;;;116.73;52.77;;;;;;;;;;5014129;28;20544;-66
2022/01/26 04:41:21;;;;;;;109.17;50.60;;;;;;;;;;5014211;28;20625;-67
2022/01/26 04:43:51;;;;;;;154.53;69.47;;;;;;;;;;5013882;28;20238;-66
2022/01/26 04:46:17;;;;;;;116.13;54.07;;;;;;;;;;5014029;28;20290;-66
2022/01/26 04:48:43;;;;;;;137.17;60.90;;;;;;;;;;5013864;28;20502;-66
2022/01/26 04:51:09;;;;;;;141.87;66.70;;;;;;;;;;5013853;28;20173;-67
2022/01/26 04:53:35;;;;;;;118.70;53.73;;;;;;;;;;5012525;28;20183;-66
2022/01/26 04:56:01;;;;;;;159.73;78.70;;;;;;;;;;5012660;28;20290;-66
2022/01/26 04:58:27;;;;;;;134.23;66.17;;;;;;;;;;5014008;28;20255;-66
2022/01/26 05:00:52;;;;;;;117.83;59.03;;;;;;;;;;5013932;28;20677;-66
2022/01/26 05:03:19;;;;;;;119.00;56.00;;;;;;;;;;5012619;28;20610;-67
2022/01/26 05:05:45;;;;;;;120.33;58.57;;;;;;;;;;5013678;28;20286;-66
2022/01/26 05:08:10;;;;;;;107.00;51.93;;;;;;;;;;5012468;28;20266;-66
2022/01/26 05:10:39;;;;;;;107.07;50.07;;;;;;;;;;5013862;28;20183;-66
2022/01/26 05:13:05;;;;;;;109.63;51.83;;;;;;;;;;5014419;28;20175;-66
2022/01/26 05:15:31;;;;;;;106.70;51.20;;;;;;;;;;5013836;28;20219;-67
2022/01/26 05:17:57;;;;;;;108.30;52.57;;;;;;;;;;5015830;28;20179;-67
2022/01/26 05:20:23;;;;;;;115.43;54.03;;;;;;;;;;5016264;28;20176;-66
2022/01/26 05:22:49;;;;;;;116.03;55.30;;;;;;;;;;5016251;28;20223;-66
2022/01/26 05:25:15;;;;;;;113.93;52.00;;;;;;;;;;5017856;28;20180;-66
2022/01/26 05:27:41;;;;;;;107.87;50.70;;;;;;;;;;5016504;28;20183;-66
2022/01/26 05:30:08;;;;;;;102.20;49.63;;;;;;;;;;5016222;28;20423;-66
2022/01/26 05:32:34;;;;;;;108.20;50.87;;;;;;;;;;5015861;28;20187;-66
2022/01/26 05:35:00;;;;;;;106.83;51.97;;;;;;;;;;5016079;28;20200;-66
2022/01/26 05:37:26;;;;;;;109.07;52.50;;;;;;;;;;5017358;28;20195;-66
2022/01/26 05:39:52;;;;;;;106.43;51.30;;;;;;;;;;5017159;28;20175;-66
2022/01/26 05:42:18;;;;;;;109.13;50.50;;;;;;;;;;5017081;28;20180;-66
2022/01/26 05:44:44;;;;;;;107.47;50.43;;;;;;;;;;5019026;28;20184;-66
2022/01/26 05:47:16;;;;;;;113.07;50.60;;;;;;;;;;5020314;28;20713;-66
2022/01/26 05:49:42;;;;;;;111.70;52.53;;;;;;;;;;5018899;28;20245;-67
2022/01/26 05:52:08;;;;;;;110.87;51.70;;;;;;;;;;5018870;28;20222;-66
2022/01/26 05:54:34;;;;;;;109.23;51.23;;;;;;;;;;5017414;28;20229;-66
2022/01/26 05:57:00;;;;;;;107.70;51.50;;;;;;;;;;5015712;28;20694;-66
2022/01/26 05:59:26;;;;;;;108.70;51.00;;;;;;;;;;5017068;28;20187;-66
2022/01/26 06:01:52;;;;;;;110.17;52.67;;;;;;;;;;5017025;28;20725;-66
2022/01/26 06:04:19;;;;;;;110.90;51.90;;;;;;;;;;5015647;28;20326;-66
2022/01/26 06:06:45;;;;;;;111.37;50.70;;;;;;;;;;5016634;28;20203;-66
2022/01/26 06:09:11;;;;;;;111.20;50.60;;;;;;;;;;5015666;28;20187;-66
2022/01/26 06:11:37;;;;;;;113.93;50.67;;;;;;;;;;5016609;28;20538;-66
2022/01/26 06:14:03;;;;;;;113.90;52.90;;;;;;;;;;5017107;28;20199;-66
2022/01/26 06:16:29;;;;;;;112.00;51.53;;;;;;;;;;5016696;28;20426;-66
2022/01/26 06:18:55;;;;;;;109.37;49.73;;;;;;;;;;5016588;28;20203;-66
2022/01/26 06:21:21;;;;;;;109.57;51.07;;;;;;;;;;5015246;28;20222;-66
2022/01/26 06:23:47;;;;;;;106.70;48.37;;;;;;;;;;5016519;28;20262;-67
2022/01/26 06:26:13;;;;;;;111.53;50.40;;;;;;;;;;5016515;28;20196;-66
2022/01/26 06:28:39;;;;;;;109.10;51.10;;;;;;;;;;5015898;28;20172;-67
2022/01/26 06:31:14;;;;;;;105.67;48.53;;;;;;;;;;5016356;28;20175;-66
2022/01/26 06:33:41;;;;;;;113.37;50.30;;;;;;;;;;5015143;28;20160;-66
2022/01/26 06:36:09;;;;;;;119.43;51.50;;;;;;;;;;5015014;28;20277;-66
2022/01/26 06:38:35;;;;;;;108.97;49.30;;;;;;;;;;5016520;28;20180;-66
2022/01/26 06:41:01;;;;;;;112.73;50.77;;;;;;;;;;5016326;28;20237;-66
2022/01/26 06:43:30;;;;;;;114.40;51.77;;;;;;;;;;5014940;28;20671;-66
2022/01/26 06:46:02;;;;;;;115.00;48.30;;;;;;;;;;5014885;28;20210;-66
2022/01/26 06:50:57;;;;;;;120.50;51.30;;;;;;;;;;5016518;28;20196;-66
2022/01/26 06:53:23;;;;;;;115.57;50.67;;;;;;;;;;5016350;28;20302;-66
2022/01/26 06:55:49;;;;;;;104.97;49.20;;;;;;;;;;5016218;28;20266;-66
2022/01/26 06:58:15;;;;;;;113.93;50.73;;;;;;;;;;5016308;28;20182;-66
2022/01/26 07:00:42;;;;;;;109.60;47.93;;;;;;;;;;5016263;28;20266;-67
2022/01/26 07:03:08;;;;;;;113.37;51.43;;;;;;;;;;5016186;28;20614;-66
2022/01/26 07:05:34;;;;;;;106.23;47.43;;;;;;;;;;5014693;28;20437;-66
2022/01/26 07:08:00;;;;;;;112.30;48.23;;;;;;;;;;5015839;28;20505;-66
2022/01/26 07:10:26;;;;;;;124.87;50.20;;;;;;;;;;5016079;28;20180;-66
2022/01/26 07:12:52;;;;;;;109.23;48.83;;;;;;;;;;5014577;28;20676;-66
2022/01/26 07:21:23;;;;;;;122.53;50.77;;;;;;;;;;5015997;28;20382;-67
2022/01/26 07:23:49;;;;;;;113.37;48.87;;;;;;;;;;5014287;28;20214;-66
2022/01/26 07:26:15;;;;;;;112.80;47.17;;;;;;;;;;5015592;28;20574;-66
2022/01/26 07:28:41;;;;;;;116.83;49.77;;;;;;;;;;5014509;28;20180;-66
2022/01/26 07:31:07;;;;;;;110.47;47.60;;;;;;;;;;5016230;28;20187;-66
2022/01/26 07:33:33;;;;;;;119.87;48.07;;;;;;;;;;5014271;28;20588;-66
2022/01/26 07:36:00;;;;;;;115.40;49.17;;;;;;;;;;5015138;28;20474;-66
2022/01/26 07:38:26;;;;;;;107.93;48.57;;;;;;;;;;5045130;23;20490;-64
2022/01/26 07:40:52;;;;;;;115.53;47.93;;;;;;;;;;5019943;28;20175;-72
2022/01/26 07:43:18;;;;;;;117.93;49.03;;;;;;;;;;5020961;28;20223;-64
2022/01/26 07:45:44;;;;;;;108.83;48.23;;;;;;;;;;5020945;28;20262;-64
2022/01/26 07:48:10;;;;;;;116.00;49.87;;;;;;;;;;5021418;28;20211;-66
2022/01/26 07:50:36;;;;;;;118.93;50.03;;;;;;;;;;5021097;28;20180;-65
2022/01/26 07:53:03;;;;;;;116.63;49.73;;;;;;;;;;5020930;28;20666;-64
2022/01/26 07:55:29;;;;;;;116.73;48.30;;;;;;;;;;5019255;28;20302;-63
2022/01/26 07:57:56;;;;;;;114.00;49.67;;;;;;;;;;5019397;28;20923;-65
2022/01/26 08:00:23;;;;;;;120.40;50.43;;;;;;;;;;5021678;28;20422;-65
2022/01/26 08:02:49;;;;;;;122.97;51.50;;;;;;;;;;5020503;28;20183;-65
2022/01/26 08:05:16;;;;;;;115.30;50.40;;;;;;;;;;5020406;28;20180;-67
2022/01/26 08:07:42;;;;;;;113.53;47.53;;;;;;;;;;5018757;28;20203;-64
2022/01/26 08:10:09;;;;;;;114.27;47.40;;;;;;;;;;5020671;28;20259;-65
2022/01/26 08:12:35;;;;;;;124.20;56.40;;;;;;;;;;5019777;28;20179;-64
2022/01/26 08:15:01;;;;;;;119.47;47.30;;;;;;;;;;5020713;28;20459;-65
2022/01/26 08:17:27;;;;;;;121.23;49.80;;;;;;;;;;5019388;28;20200;-66
2022/01/26 08:19:55;;;;;;;117.43;47.20;;;;;;;;;;5019641;28;20258;-68
2022/01/26 08:22:22;;;;;;;117.00;47.17;;;;;;;;;;5020256;28;20201;-67
2022/01/26 08:24:49;;;;;;;120.90;48.93;;;;;;;;;;5019711;28;20194;-65
2022/01/26 08:27:17;;;;;;;121.40;50.00;;;;;;;;;;5019128;28;20450;-65
2022/01/26 08:29:48;;;;;;;122.77;49.17;;;;;;;;;;5019630;28;20180;-69
2022/01/26 08:32:14;;;;;;;121.10;50.37;;;;;;;;;;5021137;28;20160;-65
2022/01/26 08:34:40;;;;;;;121.67;51.03;;;;;;;;;;5020870;28;20210;-65
2022/01/26 08:37:06;;;;;;;123.80;50.67;;;;;;;;;;5019469;28;20182;-65
2022/01/26 08:39:32;;;;;;;126.97;50.90;;;;;;;;;;5020555;28;20232;-64
2022/01/26 08:41:59;;;;;;;117.00;48.97;;;;;;;;;;5020043;28;20180;-66
2022/01/26 08:44:26;;;;;;;128.30;52.93;;;;;;;;;;5019535;28;20183;-68
2022/01/26 08:46:52;;;;;;;128.07;52.30;;;;;;;;;;5019944;28;20418;-64
2022/01/26 08:49:18;;;;;;;133.47;53.23;;;;;;;;;;5020118;28;20229;-65
2022/01/26 08:51:48;;;;;;;128.60;51.97;;;;;;;;;;5019134;28;20553;-64
2022/01/26 08:54:14;;;;;;;125.47;52.10;;;;;;;;;;5019720;28;20660;-66
2022/01/26 08:56:40;;;;;;;131.53;51.37;;;;;;;;;;5019200;28;20207;-64
2022/01/26 08:59:06;;;;;;;130.47;54.53;;;;;;;;;;5019555;28;20191;-65
2022/01/26 09:01:32;;;;;;;137.90;54.60;;;;;;;;;;5019292;28;20184;-65
2022/01/26 09:03:58;;;;;;;143.73;57.07;;;;;;;;;;5016476;28;20606;-65
2022/01/26 09:06:24;;;;;;;133.43;54.20;;;;;;;;;;5015957;28;20632;-66
2022/01/26 09:08:59;;;;;;;132.93;55.03;;;;;;;;;;5016085;28;20195;-64
2022/01/26 09:11:25;;;;;;;140.30;55.60;;;;;;;;;;5014530;28;20226;-64
2022/01/26 09:13:57;;;;;;;136.27;56.93;;;;;;;;;;5015286;28;20247;-65
2022/01/26 09:16:24;;;;;;;134.20;53.47;;;;;;;;;;5014482;28;20170;-63
2022/01/26 09:18:53;;;;;;;135.30;58.57;;;;;;;;;;5015714;28;20435;-64
2022/01/26 09:21:21;;;;;;;146.47;57.00;;;;;;;;;;5014937;28;20203;-65
2022/01/26 09:23:47;;;;;;;139.27;58.50;;;;;;;;;;5014177;28;20183;-66
2022/01/26 09:26:13;;;;;;;139.20;53.97;;;;;;;;;;5015384;28;20203;-65
2022/01/26 09:28:39;;;;;;;170.77;76.47;;;;;;;;;;5015673;28;20203;-66
2022/01/26 09:31:05;;;;;;;147.63;59.83;;;;;;;;;;5016463;28;20191;-66
2022/01/26 09:33:31;;;;;;;144.17;59.77;;;;;;;;;;5015399;28;20176;-66
2022/01/26 09:35:58;;;;;;;155.17;61.13;;;;;;;;;;5014019;28;20239;-66
2022/01/26 09:38:24;;;;;;;131.40;52.73;;;;;;;;;;5014859;28;20462;-63
2022/01/26 09:40:50;;;;;;;150.07;60.17;;;;;;;;;;5015450;28;20887;-65
2022/01/26 09:43:17;;;;;;;147.93;57.93;;;;;;;;;;5013855;28;20407;-64
2022/01/26 09:45:43;;;;;;;136.63;55.97;;;;;;;;;;5015217;28;20798;-69
2022/01/26 09:48:11;;;;;;;145.80;56.97;;;;;;;;;;5014205;28;20208;-66
2022/01/26 09:50:37;;;;;;;157.80;58.77;;;;;;;;;;5015476;28;20172;-64
2022/01/26 09:53:03;;;;;;;150.70;60.53;;;;;;;;;;5013704;28;20188;-64
2022/01/26 09:55:29;;;;;;;151.93;61.10;;;;;;;;;;5014996;28;20980;-65
2022/01/26 09:57:58;;;;;;;146.40;59.83;;;;;;;;;;5014272;28;20435;-65
2022/01/26 10:00:25;;;;;;;153.30;59.87;;;;;;;;;;5014855;28;20403;-65
2022/01/26 10:02:59;;;;;;;140.90;56.23;;;;;;;;;;5015549;28;20175;-65
2022/01/26 10:05:25;;;;;;;152.07;58.57;;;;;;;;;;5018897;28;20184;-67
2022/01/26 10:08:38;;;;;;;155.80;59.23;;;;;;;;;;5019260;28;20431;-65
2022/01/26 10:18:58;;;;;;;148.80;56.00;;;;;;;;;;4999458;28;20204;-65
2022/01/26 10:21:25;;;;;;;145.97;55.77;;;;;;;;;;5018480;28;20176;-65
2022/01/26 10:23:57;;;;;;;140.00;54.97;;;;;;;;;;5018596;28;20348;-65
2022/01/26 10:26:23;;;;;;;141.83;54.53;;;;;;;;;;5017185;28;20464;-63
2022/01/26 10:28:54;;;;;;;134.77;51.50;;;;;;;;;;5018535;28;20195;-66
2022/01/26 10:31:21;;;;;;;147.63;56.33;;;;;;;;;;5018319;28;20191;-66
2022/01/26 10:33:58;;;;;;;131.60;48.37;;;;;;;;;;5016937;28;20497;-64
2022/01/26 10:36:25;;;;;;;143.13;56.37;;;;;;;;;;5016926;28;20644;-63
2022/01/26 10:39:01;;;;;;;143.60;55.13;;;;;;;;;;5017304;28;20632;-67
2022/01/26 10:41:27;;;;;;;135.00;53.63;;;;;;;;;;5018514;28;20406;-64
2022/01/26 10:43:56;;;;;;;122.73;50.33;;;;;;;;;;5017282;28;20180;-65
2022/01/26 10:46:30;;;;;;;143.40;56.33;;;;;;;;;;5016520;28;20270;-63
2022/01/26 10:57:01;;;;;;;136.07;55.03;;;;;;;;;;5018805;28;20174;-65
2022/01/26 10:59:27;;;;;;;148.50;56.20;;;;;;;;;;5017152;28;20561;-64
2022/01/26 11:01:54;;;;;;;131.93;51.90;;;;;;;;;;5017615;28;20417;-69
2022/01/26 11:04:20;;;;;;;147.10;58.53;;;;;;;;;;5018347;28;20184;-65
2022/01/26 11:06:50;;;;;;;164.67;65.53;;;;;;;;;;5017947;28;20218;-63
2022/01/26 11:09:18;;;;;;;162.70;64.90;;;;;;;;;;5018111;28;20490;-69
2022/01/26 11:11:44;;;;;;;152.67;59.37;;;;;;;;;;5016508;28;20287;-65
2022/01/26 11:14:21;;;;;;;125.67;51.97;;;;;;;;;;5017990;28;20670;-65
2022/01/26 11:16:48;;;;;;;140.73;56.93;;;;;;;;;;5017524;28;20161;-70
2022/01/26 11:19:15;;;;;;;127.63;50.23;;;;;;;;;;5017665;28;20223;-63
2022/01/26 11:21:41;;;;;;;122.40;49.20;;;;;;;;;;5017687;28;20181;-63
2022/01/26 11:24:09;;;;;;;129.43;49.10;;;;;;;;;;5017636;28;20184;-67
2022/01/26 11:26:35;;;;;;;126.50;45.97;;;;;;;;;;5016263;28;20243;-64
2022/01/26 11:29:01;;;;;;;128.27;46.90;;;;;;;;;;5016074;28;20204;-65
2022/01/26 11:31:32;;;;;;;120.87;46.73;;;;;;;;;;5017830;28;20197;-67
2022/01/26 11:33:58;;;;;;;119.20;46.37;;;;;;;;;;5017557;28;20160;-64
2022/01/26 11:36:24;;;;;;;120.57;47.43;;;;;;;;;;5017554;28;20521;-63
2022/01/26 11:47:09;;;;;;;109.87;46.20;;;;;;;;;;5017461;28;20202;-63
2022/01/26 11:49:37;;;;;;;116.83;46.03;;;;;;;;;;5017566;28;20180;-64
2022/01/26 11:52:04;;;;;;;105.57;39.63;;;;;;;;;;5021935;28;20682;-66
2022/01/26 11:54:48;;;;;;;108.33;44.47;;;;;;;;;;5020955;28;20694;-64
2022/01/26 11:57:17;;;;;;;113.40;44.00;;;;;;;;;;5020583;28;20223;-63
2022/01/26 11:59:49;;;;;;;106.20;42.80;;;;;;;;;;5021843;28;20754;-62
2022/01/26 12:02:34;;;;;;;104.47;45.40;;;;;;;;;;5022181;28;20172;-66
2022/01/26 12:05:04;;;;;;;107.63;43.20;;;;;;;;;;5022219;28;20868;-65
2022/01/26 12:07:30;;;;;;;110.47;45.80;;;;;;;;;;5021576;28;20199;-65
2022/01/26 12:09:57;;;;;;;113.40;43.50;;;;;;;;;;5021441;28;20184;-65
2022/01/26 12:12:24;;;;;;;110.10;44.03;;;;;;;;;;5021047;28;20180;-63
2022/01/26 12:14:59;;;;;;;110.07;45.07;;;;;;;;;;5020329;28;20250;-64
2022/01/26 12:17:28;;;;;;;101.63;44.60;;;;;;;;;;5021855;28;20195;-67
2022/01/26 12:32:00;;;;;;;107.30;43.93;;;;;;;;;;5021842;28;20183;-65
2022/01/26 12:34:36;;;;;;;105.30;41.77;;;;;;;;;;5021447;28;20214;-68
2022/01/26 12:37:16;;;;;;;105.87;41.90;;;;;;;;;;5021550;28;20531;-64
2022/01/26 12:45:15;;;;;;;110.33;43.73;;;;;;;;;;5020867;28;20163;-62
2022/01/26 12:47:41;;;;;;;102.67;40.90;;;;;;;;;;5021294;28;20204;-64
2022/01/26 12:50:07;;;;;;;113.40;43.97;;;;;;;;;;5021399;28;20175;-67
2022/01/26 12:52:33;;;;;;;103.10;41.00;;;;;;;;;;5021946;28;20179;-64
2022/01/26 12:54:59;;;;;;;103.70;39.63;;;;;;;;;;5020027;28;20211;-65
2022/01/26 12:57:25;;;;;;;106.17;44.00;;;;;;;;;;5021598;28;20541;-65
2022/01/26 13:00:01;;;;;;;93.17;39.70;;;;;;;;;;5019898;28;20206;-65
2022/01/26 13:02:28;;;;;;;100.43;41.77;;;;;;;;;;5020214;28;20248;-64
2022/01/26 13:05:04;;;;;;;97.33;43.00;;;;;;;;;;5021528;28;20644;-65
2022/01/26 13:07:31;;;;;;;96.83;39.73;;;;;;;;;;5021380;28;20199;-63
2022/01/26 13:09:57;;;;;;;95.13;40.00;;;;;;;;;;5022155;28;20186;-63
2022/01/26 13:12:30;;;;;;;102.00;41.30;;;;;;;;;;5021199;28;20494;-64
2022/01/26 13:15:14;;;;;;;100.73;42.57;;;;;;;;;;5019784;28;20580;-62
2022/01/26 13:17:47;;;;;;;92.20;37.07;;;;;;;;;;5020804;28;20198;-64
2022/01/26 13:41:26;;;;;;;96.23;40.97;;;;;;;;;;5024825;28;20172;-64
2022/01/26 14:01:48;;;;;;;88.00;37.13;;;;;;;;;;5024352;28;20203;-63
2022/01/26 14:04:16;;;;;;;83.43;36.87;;;;;;;;;;5021971;28;20435;-64
2022/01/26 14:06:42;;;;;;;97.90;39.87;;;;;;;;;;5023021;28;20206;-65
2022/01/26 14:09:08;;;;;;;89.37;36.10;;;;;;;;;;5022244;28;20203;-62
2022/01/26 14:11:34;;;;;;;87.57;37.70;;;;;;;;;;5024328;28;20426;-64
2022/01/26 14:14:01;;;;;;;86.53;34.97;;;;;;;;;;5023542;28;20184;-65
2022/01/26 14:16:32;;;;;;;89.93;38.93;;;;;;;;;;5022596;28;20180;-62
2022/01/26 14:19:12;;;;;;;92.70;40.30;;;;;;;;;;5023856;28;20222;-61
2022/01/26 14:24:24;;;;;;;89.57;35.53;;;;;;;;;;5024819;28;20223;-63
2022/01/26 14:26:54;;;;;;;87.93;35.80;;;;;;;;;;5041826;23;20197;-63
2022/01/26 14:29:34;;;;;;;79.77;35.00;;;;;;;;;;5035432;28;20178;-63
2022/01/26 14:32:27;;;;;;;77.30;35.03;;;;;;;;;;5035536;28;20394;-63
2022/01/26 14:35:19;;;;;;;81.67;36.03;;;;;;;;;;5037157;28;20582;-63
2022/01/26 15:43:08;;;;;;;92.97;40.83;;;;;;;;;;5035597;28;20653;-64
2022/01/26 15:51:11;;;;;;;85.57;38.93;;;;;;;;;;5035590;28;20225;-64
2022/01/26 16:07:10;;;;;;;85.77;39.10;;;;;;;;;;5035019;28;20202;-64
2022/01/26 17:55:15;;;;;;;83.60;37.10;;;;;;;;;;5038049;28;20217;-64
2022/01/26 18:04:31;;;;;;;95.93;43.33;;;;;;;;;;5047802;28;20389;-64
2022/01/26 18:15:30;;;;;;;93.13;43.33;;;;;;;;;;5038118;28;20286;-64
2022/01/26 18:50:41;;;;;;;84.20;38.20;;;;;;;;;;5036508;28;20255;-63
2022/01/26 18:53:07;;;;;;;79.90;37.77;;;;;;;;;;5036118;28;20417;-64
2022/01/26 18:55:33;;;;;;;77.70;34.93;;;;;;;;;;5036052;28;20207;-65
2022/01/26 18:57:59;;;;;;;83.13;38.00;;;;;;;;;;5036897;28;20190;-65
2022/01/26 19:00:25;;;;;;;76.67;37.77;;;;;;;;;;5036164;28;20174;-64
2022/01/26 19:02:51;;;;;;;76.97;34.83;;;;;;;;;;5034968;28;20180;-64
2022/01/26 19:05:17;;;;;;;76.27;34.33;;;;;;;;;;5036467;28;20262;-64
2022/01/26 19:07:44;;;;;;;72.80;34.90;;;;;;;;;;5036681;28;20197;-65
2022/01/26 19:10:11;;;;;;;76.83;36.53;;;;;;;;;;5036939;28;20460;-64
2022/01/26 19:12:39;;;;;;;80.87;37.77;;;;;;;;;;5036177;28;20286;-64
2022/01/26 19:15:10;;;;;;;65.17;31.87;;;;;;;;;;5036666;28;20464;-64
2022/01/26 19:25:39;;;;;;;80.80;37.20;;;;;;;;;;5036354;28;20468;-64
2022/01/26 19:28:26;;;;;;;76.53;37.97;;;;;;;;;;5035223;28;20469;-64
2022/01/26 19:31:55;;;;;;;73.43;36.43;;;;;;;;;;5037137;28;20890;-64
2022/01/26 19:40:08;;;;;;;66.87;33.83;;;;;;;;;;5037335;28;20187;-64
2022/01/26 19:52:38;;;;;;;62.23;30.90;;;;;;;;;;5037238;28;20171;-64
2022/01/26 19:55:04;;;;;;;68.43;32.90;;;;;;;;;;5036577;28;20863;-64
2022/01/26 19:57:30;;;;;;;69.73;33.77;;;;;;;;;;5038497;28;20286;-63
2022/01/26 19:59:56;;;;;;;66.13;31.13;;;;;;;;;;5037535;28;20643;-64
2022/01/26 20:02:26;;;;;;;70.83;32.43;;;;;;;;;;5040401;28;20206;-64
2022/01/26 20:04:52;;;;;;;60.03;28.50;;;;;;;;;;5042877;28;20222;-64
2022/01/26 20:07:24;;;;;;;72.90;33.43;;;;;;;;;;5045544;28;20214;-65
2022/01/26 20:09:54;;;;;;;60.60;30.00;;;;;;;;;;5042084;28;20179;-64
2022/01/26 20:12:39;;;;;;;67.63;32.13;;;;;;;;;;5045902;28;20425;-65
2022/01/26 20:15:06;;;;;;;61.80;30.17;;;;;;;;;;5043216;28;20461;-65
2022/01/26 20:17:32;;;;;;;61.97;29.23;;;;;;;;;;5045360;28;20433;-64
2022/01/26 20:19:59;;;;;;;72.27;32.07;;;;;;;;;;5041506;28;20309;-64
2022/01/26 20:22:25;;;;;;;59.30;29.63;;;;;;;;;;5040816;28;20171;-64
2022/01/26 20:24:51;;;;;;;63.97;29.20;;;;;;;;;;5041511;28;20187;-64
2022/01/26 20:27:20;;;;;;;66.33;28.33;;;;;;;;;;5038997;28;20221;-64
2022/01/26 20:29:50;;;;;;;56.23;28.53;;;;;;;;;;5054001;22;20265;-66
2022/01/26 20:32:17;;;;;;;57.03;27.43;;;;;;;;;;5034847;28;20406;-64
2022/01/26 20:34:43;;;;;;;53.97;27.03;;;;;;;;;;5034715;28;20480;-65
2022/01/26 20:37:10;;;;;;;56.33;27.17;;;;;;;;;;5036828;28;20182;-65
2022/01/26 20:39:36;;;;;;;59.13;28.17;;;;;;;;;;5034718;28;20518;-64
2022/01/26 20:42:02;;;;;;;57.43;29.10;;;;;;;;;;5035969;28;20554;-66
2022/01/26 20:44:28;;;;;;;58.83;28.03;;;;;;;;;;5035580;28;20543;-67
2022/01/26 20:46:54;;;;;;;59.63;28.83;;;;;;;;;;5034314;28;20414;-64
2022/01/26 20:49:20;;;;;;;51.70;25.87;;;;;;;;;;5035439;28;20194;-65
2022/01/26 20:51:46;;;;;;;58.80;28.07;;;;;;;;;;5036060;28;20182;-66
2022/01/26 20:54:13;;;;;;;55.33;27.07;;;;;;;;;;5035800;28;20176;-66
2022/01/26 20:56:40;;;;;;;51.00;25.80;;;;;;;;;;5035711;28;20195;-71
2022/01/26 20:59:06;;;;;;;53.23;26.27;;;;;;;;;;5035508;28;20479;-65
2022/01/26 21:01:32;;;;;;;49.80;26.23;;;;;;;;;;5035755;28;20402;-64
2022/01/26 21:03:58;;;;;;;59.93;24.60;;;;;;;;;;5036230;28;20179;-64
2022/01/26 21:06:24;;;;;;;58.57;27.97;;;;;;;;;;5036311;28;20171;-67
2022/01/26 21:08:50;;;;;;;53.80;25.53;;;;;;;;;;5034449;28;20245;-67
2022/01/26 21:11:15;;;;;;;55.67;25.50;;;;;;;;;;5034409;28;20234;-64
2022/01/26 21:13:42;;;;;;;55.97;26.90;;;;;;;;;;5035875;28;20410;-65
2022/01/26 21:16:08;;;;;;;55.87;26.80;;;;;;;;;;5035981;28;20218;-64
2022/01/26 21:18:35;;;;;;;54.57;26.57;;;;;;;;;;5033924;28;20828;-66
2022/01/26 21:21:03;;;;;;;50.90;25.00;;;;;;;;;;5035723;28;20434;-65